createdAt,value
2019-01-11T00:02:58.183Z,35.48
2019-01-11T00:08:07.268Z,33.95
2019-01-11T00:13:16.508Z,33.09
2019-01-11T00:18:25.662Z,36.92
2019-01-11T00:23:34.869Z,31.27
2019-01-11T00:28:44.281Z,34.79
2019-01-11T00:33:53.141Z,32.29
2019-01-11T00:39:02.209Z,30.15
2019-01-11T00:44:11.464Z,33.27
2019-01-11T00:49:20.545Z,31.18
2019-01-11T00:54:29.822Z,30.09
2019-01-11T00:59:38.845Z,33.44
2019-01-11T01:04:48.064Z,30.51
2019-01-11T01:09:57.241Z,30.09
2019-01-11T01:15:06.514Z,31.15
2019-01-11T01:20:16.061Z,32.37
2019-01-11T01:25:25.230Z,30.20
2019-01-11T01:30:34.317Z,29.80
2019-01-11T01:35:43.921Z,29.61
2019-01-11T01:40:53.065Z,28.25
2019-01-11T01:46:02.216Z,26.69
2019-01-11T01:51:11.374Z,28.16
2019-01-11T01:56:20.618Z,27.13
2019-01-11T02:01:30.131Z,25.86
2019-01-11T02:06:39.284Z,26.67
2019-01-11T02:11:48.642Z,25.37
2019-01-11T02:16:57.943Z,23.04
2019-01-11T02:22:05.557Z,24.16
2019-01-11T02:27:14.712Z,23.68
2019-01-11T02:32:23.833Z,22.85
2019-01-11T02:37:33.367Z,21.38
2019-01-11T02:42:42.446Z,23.02
2019-01-11T02:47:51.750Z,20.80
2019-01-11T02:53:00.880Z,21.54
2019-01-11T02:58:10.070Z,22.34
2019-01-11T03:03:19.213Z,23.46
2019-01-11T03:08:28.383Z,21.80
2019-01-11T03:13:37.463Z,21.88
2019-01-11T03:18:46.665Z,24.48
2019-01-11T03:23:55.766Z,25.21
2019-01-11T03:29:05.009Z,24.40
2019-01-11T03:34:14.104Z,27.14
2019-01-11T03:39:23.329Z,27.70
2019-01-11T03:44:32.414Z,29.80
2019-01-11T03:49:41.645Z,32.29
2019-01-11T03:54:50.741Z,29.99
2019-01-11T03:59:59.953Z,32.73
2019-01-11T04:05:09.130Z,33.39
2019-01-11T04:10:18.761Z,31.91
2019-01-11T04:15:26.404Z,37.88
2019-01-11T04:20:35.632Z,36.86
2019-01-11T04:25:44.706Z,37.71
2019-01-11T04:30:53.968Z,40.67
2019-01-11T04:36:03.041Z,34.49
2019-01-11T04:41:12.303Z,37.50
2019-01-11T04:46:21.371Z,36.73
2019-01-11T04:51:30.549Z,39.18
2019-01-11T04:56:38.174Z,85.27
2019-01-11T05:01:47.348Z,41.37
2019-01-11T05:06:56.412Z,39.85
2019-01-11T05:12:05.708Z,51.81
2019-01-11T05:17:14.769Z,42.72
2019-01-11T05:22:23.931Z,44.36
2019-01-11T05:27:33.077Z,44.09
2019-01-11T05:32:42.217Z,47.36
2019-01-11T05:37:51.295Z,45.95
2019-01-11T05:43:00.831Z,44.30
2019-01-11T05:48:09.914Z,45.52
2019-01-11T05:53:19.469Z,49.10
2019-01-11T05:58:28.561Z,51.21
2019-01-11T06:03:38.081Z,55.96
2019-01-11T06:08:47.149Z,54.85
2019-01-11T06:13:56.381Z,61.80
2019-01-11T06:19:04.154Z,61.26
2019-01-11T06:24:13.409Z,65.98
2019-01-11T06:29:22.545Z,68.59
2019-01-11T06:34:31.745Z,61.96
2019-01-11T06:39:40.861Z,58.91
2019-01-11T06:44:50.126Z,58.30
2019-01-11T06:49:59.206Z,62.25
2019-01-11T06:55:08.386Z,60.23
2019-01-11T07:00:17.530Z,61.33
2019-01-11T07:05:27.015Z,64.41
2019-01-11T07:10:36.497Z,58.98
2019-01-11T07:15:45.725Z,57.91
2019-01-11T07:20:54.845Z,64.63
2019-01-11T07:26:04.065Z,58.73
2019-01-11T07:31:13.134Z,58.32
2019-01-11T07:36:22.300Z,53.78
2019-01-11T07:41:31.472Z,56.76
2019-01-11T07:46:40.718Z,67.73
2019-01-11T07:51:49.789Z,64.16
2019-01-11T07:56:59.285Z,65.20
2019-01-11T08:02:08.366Z,61.88
2019-01-11T08:07:17.590Z,58.98
2019-01-11T08:12:26.688Z,58.69
2019-01-11T08:17:35.956Z,57.61
2019-01-11T08:22:45.040Z,58.36
2019-01-11T08:27:54.238Z,49.65
2019-01-11T08:33:03.349Z,56.13
2019-01-11T08:38:12.648Z,52.95
2019-01-11T08:43:21.839Z,44.82
2019-01-11T08:48:31.057Z,41.46
2019-01-11T08:53:40.285Z,35.94
2019-01-11T08:58:50.686Z,26.37
2019-01-11T09:03:58.233Z,25.08
2019-01-11T09:09:07.434Z,23.88
2019-01-11T09:14:16.628Z,21.04
2019-01-11T09:19:25.901Z,17.31
2019-01-11T09:24:34.998Z,15.70
2019-01-11T09:29:44.228Z,18.46
2019-01-11T09:34:53.328Z,18.42
2019-01-11T09:40:02.584Z,17.24
2019-01-11T09:45:11.737Z,12.46
2019-01-11T09:50:20.909Z,12.89
2019-01-11T09:55:30.013Z,9.96
2019-01-11T10:00:39.198Z,13.10
2019-01-11T10:05:48.257Z,11.02
2019-01-11T10:10:57.697Z,9.28
2019-01-11T10:16:07.174Z,10.10
2019-01-11T10:21:22.022Z,12.55
2019-01-11T10:26:25.512Z,10.51
2019-01-11T10:31:34.895Z,9.56
2019-01-11T10:36:44.381Z,9.99
2019-01-11T10:41:53.740Z,11.74
2019-01-11T10:47:02.833Z,14.74
2019-01-11T10:52:12.116Z,8.85
2019-01-11T10:57:21.213Z,5.93
2019-01-11T11:02:30.473Z,6.97
2019-01-11T11:07:39.544Z,8.29
2019-01-11T11:12:48.779Z,8.06
2019-01-11T11:17:58.297Z,6.00
2019-01-11T11:23:07.609Z,6.97
2019-01-11T11:28:16.758Z,6.62
2019-01-11T11:33:26.057Z,7.75
2019-01-11T11:38:35.581Z,6.16
2019-01-11T11:43:44.847Z,6.91
2019-01-11T11:48:53.909Z,3.63
2019-01-11T11:54:03.198Z,4.78
2019-01-11T11:59:12.302Z,4.26
2019-01-11T12:04:21.481Z,4.82
2019-01-11T12:09:30.717Z,4.82
2019-01-11T12:14:40.335Z,7.13
2019-01-11T12:19:49.432Z,5.06
2019-01-11T12:24:58.767Z,10.93
2019-01-11T12:30:07.849Z,9.08
2019-01-11T12:35:17.129Z,7.62
2019-01-11T12:40:26.239Z,7.18
2019-01-11T12:45:35.496Z,6.29
2019-01-11T12:50:44.601Z,9.74
2019-01-11T12:55:53.750Z,7.80
2019-01-11T13:01:02.838Z,8.13
2019-01-11T13:06:12.103Z,8.58
2019-01-11T13:11:21.180Z,7.20
2019-01-11T13:16:30.433Z,11.43
2019-01-11T13:21:39.540Z,10.64
2019-01-11T13:26:48.767Z,8.59
2019-01-11T13:31:57.945Z,15.58
2019-01-11T13:37:07.170Z,11.44
2019-01-11T13:42:16.373Z,11.58
2019-01-11T13:47:25.587Z,11.34
2019-01-11T13:52:34.651Z,13.92
2019-01-11T13:57:43.872Z,15.30
2019-01-11T14:02:52.982Z,15.31
2019-01-11T14:08:00.670Z,19.38
2019-01-11T14:13:09.785Z,14.04
2019-01-11T14:18:19.096Z,17.19
2019-01-11T14:23:28.165Z,17.10
2019-01-11T14:28:37.369Z,21.01
2019-01-11T14:33:46.586Z,17.96
2019-01-11T14:38:55.814Z,25.21
2019-01-11T14:44:04.938Z,19.63
2019-01-11T14:49:14.215Z,19.75
2019-01-11T14:54:23.301Z,19.99
2019-01-11T14:59:32.525Z,25.54
2019-01-11T15:04:41.622Z,20.85
2019-01-11T15:09:50.955Z,22.13
2019-01-11T15:15:00.033Z,24.18
2019-01-11T15:20:09.327Z,25.60
2019-01-11T15:25:18.415Z,25.58
2019-01-11T15:30:27.625Z,28.39
2019-01-11T15:35:36.789Z,24.19
2019-01-11T15:40:46.051Z,26.88
2019-01-11T15:45:55.166Z,28.60
2019-01-11T15:51:04.522Z,28.18
2019-01-11T15:56:13.698Z,28.58
2019-01-11T16:01:23.410Z,26.07
2019-01-11T16:06:32.634Z,29.94
2019-01-11T16:11:41.866Z,35.69
2019-01-11T16:16:51.004Z,29.96
2019-01-11T16:22:00.225Z,34.11
2019-01-11T16:27:09.321Z,39.63
2019-01-11T16:32:18.548Z,36.29
2019-01-11T16:37:27.638Z,32.26
2019-01-11T16:42:38.808Z,34.41
2019-01-11T16:47:45.869Z,35.25
2019-01-11T16:52:55.050Z,39.27
2019-01-11T16:58:05.777Z,33.26
2019-01-11T17:03:04.951Z,37.04
2019-01-11T17:08:14.045Z,39.50
2019-01-11T17:13:23.346Z,36.59
2019-01-11T17:18:32.552Z,33.85
2019-01-11T17:23:42.167Z,43.88
2019-01-11T17:28:49.905Z,33.48
2019-01-11T17:47:06.805Z,43.03
2019-01-11T17:52:05.839Z,35.57
2019-01-11T17:57:15.055Z,39.09
2019-01-11T18:02:24.154Z,45.16
2019-01-11T18:07:33.383Z,39.50
2019-01-11T18:12:42.521Z,41.37
2019-01-11T18:17:51.783Z,39.53
2019-01-11T18:23:06.738Z,37.37
2019-01-11T18:28:09.889Z,43.46
2019-01-11T18:33:19.423Z,46.21
2019-01-11T18:38:28.597Z,42.56
2019-01-11T18:43:37.757Z,37.70
2019-01-11T18:48:47.141Z,44.61
2019-01-11T18:53:56.274Z,43.62
2019-01-11T18:59:05.560Z,46.90
2019-01-11T19:04:14.730Z,49.20
2019-01-11T19:09:24.125Z,47.07
2019-01-11T19:14:33.345Z,44.95
2019-01-11T19:19:42.888Z,41.94
2019-01-11T19:24:52.034Z,48.48
2019-01-11T19:30:02.074Z,44.49
2019-01-11T19:35:01.133Z,44.49
2019-01-11T19:40:10.411Z,53.17
2019-01-11T19:45:19.494Z,45.15
2019-01-11T19:50:28.718Z,43.32
2019-01-11T19:55:37.921Z,44.23
2019-01-11T20:00:47.248Z,37.13
2019-01-11T20:05:56.404Z,36.44
2019-01-11T20:11:06.492Z,40.30
2019-01-11T20:16:06.134Z,41.82
2019-01-11T20:21:15.405Z,44.85
2019-01-11T20:26:24.505Z,38.37
2019-01-11T20:31:33.751Z,46.03
2019-01-11T20:36:43.128Z,43.96
2019-01-11T20:41:52.585Z,41.77
2019-01-11T20:47:01.974Z,41.16
2019-01-11T20:52:11.705Z,40.89
2019-01-11T20:57:20.840Z,41.41
2019-01-11T21:02:30.142Z,39.59
2019-01-11T21:07:39.393Z,38.92
2019-01-11T21:12:48.686Z,43.64
2019-01-11T21:17:58.150Z,38.92
2019-01-11T21:23:07.352Z,35.83
2019-01-11T21:28:16.489Z,36.14
2019-01-11T21:33:25.648Z,37.77
2019-01-11T21:38:35.070Z,42.63
2019-01-11T21:43:44.372Z,36.28
2019-01-11T21:48:53.467Z,35.12
2019-01-11T21:54:03.518Z,41.07
2019-01-11T21:59:02.590Z,38.52
2019-01-11T22:04:11.789Z,35.71
2019-01-11T22:09:20.868Z,41.32
2019-01-11T22:14:30.149Z,39.44
2019-01-11T22:19:39.326Z,41.39
2019-01-11T22:24:48.565Z,35.49
2019-01-11T22:29:57.648Z,41.42
2019-01-11T22:35:06.820Z,37.22
2019-01-11T22:40:15.949Z,37.62
2019-01-11T22:45:25.185Z,32.26
2019-01-11T22:50:34.250Z,32.24
2019-01-11T22:55:43.405Z,38.40
2019-01-11T23:00:52.502Z,31.04
2019-01-11T23:06:08.895Z,32.52
2019-01-11T23:11:10.337Z,30.25
2019-01-11T23:16:19.748Z,35.98
2019-01-11T23:21:28.897Z,31.02
2019-01-11T23:26:38.295Z,31.46
2019-01-11T23:31:47.678Z,29.55
2019-01-11T23:36:56.909Z,31.99
2019-01-11T23:42:05.982Z,39.86
2019-01-11T23:47:15.202Z,33.59
2019-01-11T23:52:24.339Z,35.78
2019-01-11T23:57:33.590Z,42.64
